Time;durP1;ratioP1;P1;durP2;ratioP2;P2;SDS_P1;SDS_P2;PMS_P1;PMS_P2;Temp;Humidity;BMP_temperature;BMP_pressure;BME280_temperature;BME280_humidity;BME280_pressure;Samples;Min_cycle;Max_cycle;Signal;HPM_P1;HPM_P2
2023/09/08 04:01:56;;;;;;;0.60;0.20;;;20.70;30.50;;;;;;5145133;23;1077747;-71
2023/09/08 04:04:24;;;;;;;1.17;0.73;;;20.50;31.50;;;;;;4898174;29;20208;-71
2023/09/08 04:06:52;;;;;;;0.60;0.10;;;20.40;32.70;;;;;;4898767;29;20456;-70
2023/09/08 04:09:19;;;;;;;0.60;0.20;;;20.40;32.90;;;;;;4896065;29;20472;-71
2023/09/08 04:11:47;;;;;;;0.60;0.20;;;20.40;33.50;;;;;;4898797;29;20469;-71
2023/09/08 04:14:15;;;;;;;0.60;0.27;;;20.30;32.80;;;;;;4898160;29;20460;-71
2023/09/08 04:16:43;;;;;;;0.60;0.10;;;20.20;33.30;;;;;;4898294;29;20806;-71
2023/09/08 04:19:12;;;;;;;0.60;0.10;;;20.00;34.40;;;;;;4897596;29;20491;-71
2023/09/08 04:21:42;;;;;;;0.70;0.43;;;20.00;35.30;;;;;;4898412;29;20520;-70
2023/09/08 04:24:10;;;;;;;0.60;0.10;;;19.80;37.10;;;;;;4898104;29;20476;-71
2023/09/08 04:26:38;;;;;;;0.60;0.10;;;19.70;40.80;;;;;;4898240;29;20456;-71
2023/09/08 04:29:06;;;;;;;0.70;0.40;;;19.70;52.20;;;;;;4898475;29;20461;-70
2023/09/08 04:31:34;;;;;;;0.60;0.10;;;19.60;49.70;;;;;;4896355;29;20491;-71
2023/09/08 04:34:02;;;;;;;0.60;0.10;;;19.50;53.30;;;;;;4898425;29;20830;-70
2023/09/08 04:36:31;;;;;;;0.60;0.20;;;19.50;55.00;;;;;;4897471;29;20531;-72
2023/09/08 04:38:59;;;;;;;0.60;0.10;;;19.60;57.60;;;;;;4898336;29;20456;-70
2023/09/08 04:41:27;;;;;;;0.60;0.10;;;19.70;60.70;;;;;;4898641;29;20507;-70
2023/09/08 04:43:55;;;;;;;0.60;0.10;;;19.60;72.10;;;;;;4896603;29;20569;-71
2023/09/08 04:46:23;;;;;;;0.60;0.20;;;19.70;70.90;;;;;;4896645;29;20867;-71
2023/09/08 04:48:51;;;;;;;0.60;0.17;;;19.70;59.40;;;;;;4898537;29;20469;-72
2023/09/08 04:51:18;;;;;;;0.60;0.20;;;19.70;57.50;;;;;;4897907;29;20477;-70
2023/09/08 04:53:48;;;;;;;0.60;0.10;;;19.60;56.30;;;;;;4893875;29;20547;-70
2023/09/08 04:56:16;;;;;;;0.60;0.10;;;19.60;56.00;;;;;;4891829;29;20495;-72
2023/09/08 04:58:43;;;;;;;0.60;0.20;;;19.70;57.10;;;;;;4898448;29;20459;-72
2023/09/08 05:01:11;;;;;;;0.60;0.10;;;19.70;58.00;;;;;;4897660;29;20993;-71
2023/09/08 05:03:39;;;;;;;0.70;0.40;;;19.80;59.40;;;;;;4897616;29;20835;-71
2023/09/08 05:06:07;;;;;;;0.60;0.20;;;19.90;55.30;;;;;;4897389;29;20857;-71
2023/09/08 05:08:35;;;;;;;0.60;0.10;;;20.00;53.00;;;;;;4898074;29;20535;-71
2023/09/08 05:11:05;;;;;;;0.60;0.10;;;20.00;50.40;;;;;;4895379;29;20519;-70
2023/09/08 05:13:32;;;;;;;0.70;0.20;;;19.90;49.30;;;;;;4896577;29;20564;-71
2023/09/08 05:16:10;;;;;;;0.60;0.20;;;19.70;51.20;;;;;;4895835;29;20491;-71
2023/09/08 05:18:39;;;;;;;0.60;0.10;;;19.60;54.50;;;;;;4897204;29;20469;-71
2023/09/08 05:21:07;;;;;;;0.80;0.50;;;19.60;56.80;;;;;;4897461;29;20510;-70
2023/09/08 05:23:35;;;;;;;0.60;0.10;;;19.60;57.50;;;;;;4897161;29;20803;-71
2023/09/08 05:26:04;;;;;;;0.60;0.20;;;19.60;58.10;;;;;;4893678;29;20460;-71
2023/09/08 05:28:32;;;;;;;0.70;0.50;;;19.60;57.90;;;;;;4897091;29;20508;-70
2023/09/08 05:31:04;;;;;;;0.60;0.10;;;19.60;59.80;;;;;;4897719;29;21202;-70
2023/09/08 05:33:32;;;;;;;0.60;0.10;;;19.70;62.70;;;;;;4896277;29;20455;-72
2023/09/08 05:35:59;;;;;;;0.70;0.50;;;19.70;58.10;;;;;;4896634;29;20492;-71
2023/09/08 05:38:28;;;;;;;0.60;0.10;;;19.70;57.20;;;;;;4895085;29;20538;-71
2023/09/08 05:40:56;;;;;;;0.60;0.20;;;19.80;57.90;;;;;;4896058;29;20988;-71
2023/09/08 05:43:26;;;;;;;0.60;0.10;;;19.80;56.80;;;;;;4896354;29;20490;-71
2023/09/08 05:45:54;;;;;;;0.60;0.20;;;;;;;;;;4895791;29;20454;-70
2023/09/08 05:48:22;;;;;;;0.60;0.20;;;19.80;59.20;;;;;;4896217;29;20544;-73
2023/09/08 05:50:50;;;;;;;0.60;0.10;;;19.90;59.90;;;;;;4895681;29;20574;-71
2023/09/08 05:53:18;;;;;;;0.60;0.10;;;20.00;60.80;;;;;;4888112;29;21201;-71
2023/09/08 05:55:46;;;;;;;0.60;0.20;;;20.10;62.60;;;;;;4895599;29;20531;-71
2023/09/08 05:58:14;;;;;;;0.70;0.30;;;20.10;62.20;;;;;;4893868;29;21013;-71
2023/09/08 06:00:43;;;;;;;0.90;0.57;;;20.20;57.90;;;;;;4894940;29;20576;-70
2023/09/08 06:03:11;;;;;;;0.60;0.20;;;20.20;56.10;;;;;;4892391;29;20468;-72
2023/09/08 06:05:39;;;;;;;1.57;0.57;;;20.30;60.40;;;;;;4890729;29;20474;-70
2023/09/08 06:08:07;;;;;;;0.60;0.20;;;20.40;62.20;;;;;;4895355;29;20455;-71
2023/09/08 06:10:35;;;;;;;0.60;0.20;;;20.60;60.90;;;;;;4895524;29;20553;-71
2023/09/08 06:13:03;;;;;;;0.60;0.17;;;20.60;57.50;;;;;;4896280;29;20907;-71
2023/09/08 06:15:31;;;;;;;0.60;0.10;;;20.70;55.80;;;;;;4894105;29;20508;-71
2023/09/08 06:18:00;;;;;;;0.60;0.20;;;20.70;53.80;;;;;;4887657;29;20446;-71
2023/09/08 06:20:29;;;;;;;0.60;0.10;;;20.80;53.10;;;;;;4896548;29;20487;-72
2023/09/08 06:22:57;;;;;;;0.60;0.20;;;20.90;54.80;;;;;;4896364;29;20982;-73
2023/09/08 06:25:24;;;;;;;0.80;0.30;;;20.90;52.70;;;;;;4896462;29;20808;-72
2023/09/08 06:27:53;;;;;;;0.83;0.50;;;20.90;49.50;;;;;;4896784;29;20446;-72
2023/09/08 06:30:21;;;;;;;0.70;0.20;;;21.00;49.60;;;;;;4896799;29;20537;-72
2023/09/08 06:32:49;;;;;;;0.60;0.10;;;21.00;49.70;;;;;;4896948;29;20449;-71
2023/09/08 06:35:18;;;;;;;0.60;0.10;;;21.00;50.40;;;;;;4898533;29;20536;-72
2023/09/08 06:37:46;;;;;;;0.60;0.20;;;21.10;48.50;;;;;;4898702;29;20496;-69
2023/09/08 06:40:14;;;;;;;0.60;0.20;;;;;;;;;;4897024;29;20449;-68
2023/09/08 06:42:43;;;;;;;0.60;0.10;;;;;;;;;;4901031;29;20522;-69
2023/09/08 06:45:11;;;;;;;0.60;0.10;;;21.20;44.60;;;;;;4899306;29;20453;-73
2023/09/08 06:47:39;;;;;;;0.60;0.10;;;21.20;46.70;;;;;;4892053;29;20463;-72
2023/09/08 06:50:07;;;;;;;0.60;0.10;;;21.10;43.30;;;;;;4899774;29;20449;-73
2023/09/08 06:52:37;;;;;;;0.60;0.10;;;21.20;45.40;;;;;;4899745;29;20453;-71
2023/09/08 06:55:05;;;;;;;1.37;1.27;;;21.20;45.00;;;;;;4899449;29;21642;-71
2023/09/08 06:57:33;;;;;;;0.60;0.20;;;21.20;56.40;;;;;;4901087;29;20496;-71
2023/09/08 07:00:05;;;;;;;0.60;0.13;;;21.30;44.00;;;;;;4902154;29;20534;-72
2023/09/08 07:02:33;;;;;;;1.47;1.27;;;21.30;44.40;;;;;;4900923;29;20832;-71
2023/09/08 07:05:06;;;;;;;0.60;0.20;;;21.30;44.00;;;;;;4900304;29;20545;-72
2023/09/08 07:07:34;;;;;;;0.60;0.30;;;21.40;45.20;;;;;;4900207;29;20500;-72
2023/09/08 07:10:04;;;;;;;1.50;1.40;;;21.40;44.00;;;;;;4900574;29;20448;-72
2023/09/08 07:12:32;;;;;;;0.60;0.10;;;21.30;43.80;;;;;;4899614;29;20473;-72
2023/09/08 07:15:00;;;;;;;0.60;0.20;;;21.30;43.80;;;;;;4899512;29;20500;-71
2023/09/08 07:17:28;;;;;;;0.60;0.20;;;21.30;43.70;;;;;;4900467;29;20548;-72
2023/09/08 07:19:56;;;;;;;0.60;0.20;;;21.30;45.20;;;;;;4899663;29;20490;-71
2023/09/08 07:22:24;;;;;;;0.60;0.20;;;;;;;;;;4899472;29;20560;-72
2023/09/08 07:24:53;;;;;;;0.60;0.10;;;;;;;;;;4900560;29;20957;-71
2023/09/08 07:27:22;;;;;;;0.60;0.10;;;21.40;48.60;;;;;;4900159;29;20473;-71
2023/09/08 07:29:50;;;;;;;0.60;0.10;;;21.60;49.30;;;;;;4900306;29;21161;-71
2023/09/08 07:32:18;;;;;;;0.60;0.20;;;21.70;48.50;;;;;;4899905;29;20469;-71
2023/09/08 07:34:47;;;;;;;0.60;0.17;;;;;;;;;;4899431;29;20465;-71
2023/09/08 07:37:15;;;;;;;0.60;0.17;;;21.90;46.80;;;;;;4901507;29;20779;-71
2023/09/08 07:39:43;;;;;;;0.60;0.20;;;21.90;45.60;;;;;;4900827;29;20484;-71
2023/09/08 07:42:11;;;;;;;0.60;0.20;;;21.90;43.10;;;;;;4901193;29;20596;-71
2023/09/08 07:44:40;;;;;;;0.80;0.63;;;21.90;42.80;;;;;;4900633;29;20465;-72
2023/09/08 07:47:08;;;;;;;0.60;0.20;;;21.80;42.80;;;;;;4901517;29;20445;-71
2023/09/08 07:49:36;;;;;;;0.80;0.63;;;21.80;42.60;;;;;;4901923;29;20484;-72
2023/09/08 07:52:07;;;;;;;0.60;0.10;;;22.90;44.20;;;;;;4900944;29;20484;-71
2023/09/08 07:54:34;;;;;;;1.90;1.80;;;21.90;54.50;;;;;;4899083;29;20529;-71
2023/09/08 07:57:02;;;;;;;4.17;2.90;;;22.00;55.20;;;;;;4899808;29;20489;-71
2023/09/08 07:59:30;;;;;;;0.70;0.40;;;22.00;52.10;;;;;;4899317;29;20461;-71
2023/09/08 08:01:59;;;;;;;0.60;0.20;;;22.00;35.10;;;;;;4899233;29;20560;-72
2023/09/08 08:04:27;;;;;;;0.60;0.20;;;22.00;45.90;;;;;;4891755;29;20946;-71
2023/09/08 08:06:55;;;;;;;0.60;0.10;;;22.00;36.00;;;;;;4898858;29;20445;-71
2023/09/08 08:09:23;;;;;;;0.60;0.10;;;22.10;37.10;;;;;;4898305;29;20834;-72
2023/09/08 08:11:51;;;;;;;0.60;0.30;;;;;;;;;;4898676;29;20481;-72
2023/09/08 08:14:19;;;;;;;0.60;0.30;;;22.20;39.60;;;;;;4895972;29;20503;-72
2023/09/08 08:16:47;;;;;;;1.10;0.73;;;;;;;;;;4898490;29;20824;-72
2023/09/08 08:19:16;;;;;;;0.60;0.10;;;22.40;38.80;;;;;;4898344;29;20988;-72
2023/09/08 08:21:44;;;;;;;0.60;0.20;;;22.40;38.20;;;;;;4898242;29;20576;-71
2023/09/08 08:24:12;;;;;;;0.60;0.20;;;22.50;37.30;;;;;;4898351;29;20453;-72
2023/09/08 08:26:40;;;;;;;0.60;0.10;;;22.50;35.30;;;;;;4898352;29;20457;-72
2023/09/08 08:29:08;;;;;;;1.23;0.57;;;22.50;45.50;;;;;;4900393;29;20458;-71
2023/09/08 08:31:36;;;;;;;0.60;0.20;;;22.50;32.60;;;;;;4902814;29;20473;-71
2023/09/08 08:34:03;;;;;;;0.60;0.13;;;22.60;31.90;;;;;;4899268;29;20840;-72
2023/09/08 08:36:33;;;;;;;0.60;0.10;;;22.70;32.00;;;;;;4898211;29;20821;-72
2023/09/08 08:39:00;;;;;;;0.60;0.10;;;22.80;33.70;;;;;;4897967;29;20450;-72
2023/09/08 08:41:30;;;;;;;0.60;0.10;;;22.80;33.30;;;;;;4890438;29;20483;-72
2023/09/08 08:43:59;;;;;;;0.60;0.10;;;22.90;32.20;;;;;;4889813;29;20445;-71
2023/09/08 08:46:28;;;;;;;0.60;0.20;;;22.80;43.50;;;;;;4897428;29;20465;-72
2023/09/08 08:48:56;;;;;;;0.60;0.10;;;;;;;;;;4894985;29;20450;-72
2023/09/08 08:51:24;;;;;;;0.60;0.10;;;23.00;31.30;;;;;;4895885;29;20835;-71
2023/09/08 08:53:54;;;;;;;0.63;0.20;;;23.00;42.20;;;;;;4895967;29;20461;-72
2023/09/08 08:56:23;;;;;;;0.70;0.20;;;23.00;31.60;;;;;;4897338;29;21225;-71
2023/09/08 08:58:51;;;;;;;0.60;0.10;;;23.10;29.60;;;;;;4895870;29;20521;-71
2023/09/08 09:01:21;;;;;;;1.10;0.77;;;23.10;29.20;;;;;;4896499;29;20485;-71
2023/09/08 09:03:50;;;;;;;0.70;0.20;;;23.10;29.80;;;;;;4891952;29;20473;-71
2023/09/08 09:06:18;;;;;;;0.70;0.40;;;23.60;29.90;;;;;;4896680;29;20529;-72
2023/09/08 09:08:47;;;;;;;0.60;0.20;;;23.10;40.30;;;;;;4897364;29;20449;-71
2023/09/08 09:11:17;;;;;;;0.60;0.10;;;23.20;29.40;;;;;;4897608;29;21543;-69
2023/09/08 09:13:45;;;;;;;0.60;0.10;;;23.30;29.80;;;;;;4896645;29;21048;-68
2023/09/08 09:16:13;;;;;;;0.67;0.10;;;23.40;29.30;;;;;;4897056;29;20548;-69
2023/09/08 09:18:55;;;;;;;0.67;0.10;;;23.50;30.00;;;;;;4896803;29;20524;-68
2023/09/08 09:21:23;;;;;;;0.60;0.20;;;23.60;29.70;;;;;;4896866;29;20532;-68
2023/09/08 09:23:51;;;;;;;0.60;0.10;;;23.60;29.50;;;;;;4896622;29;20481;-69
2023/09/08 09:26:26;;;;;;;0.60;0.10;;;23.60;25.00;;;;;;4895706;29;20457;-72
2023/09/08 09:28:55;;;;;;;0.70;0.20;;;;;;;;;;4897014;29;20453;-69
2023/09/08 09:31:26;;;;;;;0.70;0.10;;;23.80;25.20;;;;;;4896860;29;20469;-70
2023/09/08 09:34:05;;;;;;;0.63;0.20;;;23.90;24.60;;;;;;4896994;29;20613;-68
2023/09/08 09:36:33;;;;;;;0.70;0.10;;;24.00;23.50;;;;;;4886287;29;20454;-69
2023/09/08 09:39:01;;;;;;;0.70;0.20;;;24.00;32.60;;;;;;4892517;29;20659;-70
2023/09/08 09:41:31;;;;;;;0.90;0.53;;;24.00;19.80;;;;;;4896803;29;20481;-69
2023/09/08 09:44:00;;;;;;;1.07;0.97;;;24.10;19.90;;;;;;4899404;29;20450;-71
2023/09/08 09:46:29;;;;;;;0.70;0.10;;;24.20;19.20;;;;;;4898979;29;20453;-69
2023/09/08 09:48:57;;;;;;;2.93;1.37;;;;;;;;;;4897593;29;20827;-70
2023/09/08 09:51:25;;;;;;;0.73;0.27;;;24.30;16.60;;;;;;4897052;29;20514;-70
2023/09/08 09:53:54;;;;;;;0.70;0.13;;;;;;;;;;4896395;29;20458;-70
2023/09/08 09:56:24;;;;;;;0.70;0.10;;;24.50;13.80;;;;;;4896491;29;20460;-69
2023/09/08 09:58:55;;;;;;;2.63;2.50;;;24.50;13.20;;;;;;4896120;29;20513;-68
2023/09/08 10:01:25;;;;;;;0.70;0.20;;;24.50;13.10;;;;;;4896021;29;20516;-72
2023/09/08 10:03:55;;;;;;;0.70;0.20;;;24.60;12.80;;;;;;4896035;29;20453;-72
2023/09/08 10:06:23;;;;;;;0.70;0.20;;;24.70;13.90;;;;;;4896591;29;20487;-72
2023/09/08 10:08:52;;;;;;;0.97;0.73;;;24.80;14.60;;;;;;4895780;29;20450;-72
2023/09/08 10:11:22;;;;;;;1.10;0.73;;;24.80;14.40;;;;;;4895967;29;20980;-69
2023/09/08 10:13:54;;;;;;;0.70;0.20;;;24.90;14.30;;;;;;4895832;29;20458;-69
2023/09/08 10:16:26;;;;;;;0.70;0.10;;;24.90;14.30;;;;;;4895224;29;20548;-69
2023/09/08 10:18:56;;;;;;;0.70;0.10;;;25.00;14.90;;;;;;4896110;29;21028;-69
2023/09/08 10:21:26;;;;;;;0.70;0.10;;;25.00;15.20;;;;;;4896272;29;20565;-71
2023/09/08 10:24:00;;;;;;;0.70;0.10;;;25.10;23.00;;;;;;4896054;29;20565;-68
2023/09/08 10:26:30;;;;;;;0.70;0.13;;;25.20;14.30;;;;;;4897181;29;20496;-69
2023/09/08 10:28:59;;;;;;;0.70;0.20;;;25.20;13.50;;;;;;4896986;29;20465;-70
2023/09/08 10:31:29;;;;;;;0.70;0.20;;;25.30;14.70;;;;;;4897208;29;20484;-68
2023/09/08 10:33:58;;;;;;;0.70;0.10;;;25.40;14.20;;;;;;4896807;29;20453;-68
2023/09/08 10:36:26;;;;;;;0.70;0.20;;;25.40;22.60;;;;;;4897086;29;20454;-70
2023/09/08 10:38:56;;;;;;;0.70;0.10;;;25.50;22.90;;;;;;4896083;29;20841;-69
2023/09/08 10:41:32;;;;;;;0.70;0.10;;;25.50;14.40;;;;;;4895815;29;21063;-71
2023/09/08 10:44:04;;;;;;;0.70;0.10;;;25.50;23.60;;;;;;4898678;29;20532;-70
2023/09/08 10:46:34;;;;;;;0.70;0.20;;;25.70;15.00;;;;;;4897473;29;20654;-69
2023/09/08 10:49:06;;;;;;;0.70;0.10;;;25.70;14.70;;;;;;4896193;29;20445;-70
2023/09/08 10:51:35;;;;;;;0.70;0.10;;;25.70;15.00;;;;;;4894782;29;20470;-68
2023/09/08 10:54:04;;;;;;;0.70;0.10;;;25.80;16.30;;;;;;4895806;29;20481;-69
2023/09/08 10:56:50;;;;;;;0.70;0.30;;;25.80;15.70;;;;;;4896392;29;20548;-70
2023/09/08 10:59:18;;;;;;;0.70;0.20;;;;;;;;;;4896119;29;20582;-71
2023/09/08 11:01:49;;;;;;;0.70;0.20;;;25.90;15.10;;;;;;4895484;29;20489;-70
2023/09/08 11:04:18;;;;;;;0.70;0.20;;;26.00;14.40;;;;;;4895159;29;20469;-70
2023/09/08 11:06:47;;;;;;;0.70;0.10;;;26.00;22.70;;;;;;4895582;29;20455;-69
2023/09/08 11:09:15;;;;;;;0.70;0.20;;;26.00;19.50;;;;;;4895981;29;20478;-70
2023/09/08 11:11:43;;;;;;;0.70;0.10;;;;;;;;;;4896628;29;20477;-70
2023/09/08 11:14:11;;;;;;;0.90;0.73;;;26.10;8.20;;;;;;4895515;29;20475;-69
2023/09/08 11:16:39;;;;;;;0.70;0.50;;;26.10;15.70;;;;;;4895908;29;20450;-70
2023/09/08 11:19:09;;;;;;;0.70;0.10;;;26.20;9.80;;;;;;4896058;29;20485;-73
2023/09/08 11:21:37;;;;;;;0.70;0.10;;;26.30;8.90;;;;;;4887616;29;20474;-71
2023/09/08 11:24:10;;;;;;;0.70;0.20;;;26.30;27.20;;;;;;4895526;29;20884;-72
2023/09/08 11:26:38;;;;;;;0.70;0.20;;;26.40;7.80;;;;;;4896411;29;20530;-74
2023/09/08 11:29:06;;;;;;;0.80;0.40;;;26.50;7.40;;;;;;4898489;29;20536;-67
2023/09/08 11:31:35;;;;;;;0.70;0.10;;;;;;;;;;4900631;29;20467;-71
2023/09/08 11:34:06;;;;;;;0.70;0.10;;;26.40;6.30;;;;;;4899198;29;20462;-72
2023/09/08 11:36:36;;;;;;;0.70;0.10;;;26.60;6.50;;;;;;4899224;29;20521;-72
2023/09/08 11:39:06;;;;;;;0.70;0.10;;;26.70;6.10;;;;;;4900036;29;20485;-72
2023/09/08 11:41:35;;;;;;;0.70;0.10;;;26.80;6.10;;;;;;4899437;29;20466;-72
2023/09/08 11:44:03;;;;;;;0.70;0.10;;;26.80;14.40;;;;;;4899943;29;20529;-71
2023/09/08 11:46:31;;;;;;;0.70;0.10;;;;;;;;;;4914882;29;20451;-72
2023/09/08 11:48:59;;;;;;;0.70;0.20;;;26.90;4.70;;;;;;4910165;29;20507;-72
2023/09/08 11:51:27;;;;;;;0.73;0.30;;;27.00;4.40;;;;;;4899358;29;20854;-71
2023/09/08 11:53:57;;;;;;;0.70;0.30;;;26.90;2.70;;;;;;4898594;29;20495;-72
2023/09/08 11:56:25;;;;;;;0.70;0.13;;;26.90;2.80;;;;;;4899226;29;20455;-72
2023/09/08 11:58:53;;;;;;;0.70;0.17;;;26.90;2.10;;;;;;4898997;29;20485;-72
2023/09/08 12:01:22;;;;;;;1.10;0.80;;;;;;;;;;4899021;29;20494;-72
2023/09/08 12:03:53;;;;;;;0.70;0.20;;;26.90;1.80;;;;;;4898313;29;20455;-73
2023/09/08 12:06:25;;;;;;;0.70;0.17;;;27.00;9.70;;;;;;4896223;29;20553;-73
2023/09/08 12:08:53;;;;;;;0.70;0.10;;;27.10;4.10;;;;;;4897590;29;20458;-73
2023/09/08 12:11:22;;;;;;;1.17;0.57;;;27.20;3.20;;;;;;4898369;29;20536;-73
2023/09/08 12:14:00;;;;;;;0.70;0.20;;;27.20;11.00;;;;;;4898924;29;20494;-72
2023/09/08 12:16:28;;;;;;;0.70;0.10;;;27.10;1.10;;;;;;4899351;29;20536;-72
2023/09/08 12:18:56;;;;;;;0.70;0.20;;;;;;;;;;4898027;29;20529;-73
2023/09/08 12:21:24;;;;;;;0.70;0.20;;;27.30;2.80;;;;;;4897957;29;20929;-72
2023/09/08 12:23:54;;;;;;;1.37;0.93;;;26.30;10.30;;;;;;4897527;29;20460;-72
2023/09/08 12:26:25;;;;;;;3.90;3.50;;;27.30;1.00;;;;;;4897782;29;20505;-72
2023/09/08 12:28:54;;;;;;;1.80;1.70;;;27.40;1.00;;;;;;4897669;29;20517;-73
2023/09/08 12:31:23;;;;;;;0.70;0.50;;;27.40;1.00;;;;;;4897384;29;21021;-74
2023/09/08 12:33:52;;;;;;;0.70;0.10;;;27.50;1.00;;;;;;4896991;29;20541;-73
2023/09/08 12:36:21;;;;;;;0.70;0.10;;;27.50;6.40;;;;;;4897878;29;20451;-72
2023/09/08 12:38:51;;;;;;;0.70;0.40;;;27.70;1.00;;;;;;4897061;29;20980;-71
2023/09/08 12:41:19;;;;;;;0.70;0.10;;;27.70;1.00;;;;;;4897155;29;20479;-71
2023/09/08 12:43:49;;;;;;;0.90;0.30;;;27.80;1.00;;;;;;4899494;29;20456;-72
2023/09/08 12:46:18;;;;;;;0.70;0.10;;;27.80;7.60;;;;;;4900237;29;20511;-71
2023/09/08 12:48:47;;;;;;;1.00;0.63;;;27.80;1.00;;;;;;4900551;29;20534;-72
2023/09/08 12:51:15;;;;;;;0.80;0.40;;;27.80;1.00;;;;;;4900086;29;21005;-71
2023/09/08 12:53:42;;;;;;;2.07;0.93;;;27.80;5.70;;;;;;4891166;29;20888;-71
2023/09/08 12:56:10;;;;;;;0.70;0.20;;;27.70;3.10;;;;;;4898228;29;20449;-71
2023/09/08 12:58:38;;;;;;;0.70;0.20;;;27.80;3.10;;;;;;4897977;29;20455;-71
2023/09/08 13:01:07;;;;;;;0.70;0.10;;;28.00;1.00;;;;;;4898017;29;20484;-71
2023/09/08 13:03:35;;;;;;;0.70;0.40;;;28.00;1.00;;;;;;4896946;29;20534;-73
2023/09/08 13:06:03;;;;;;;0.70;0.20;;;28.00;3.50;;;;;;4896862;29;20566;-72
2023/09/08 13:08:32;;;;;;;0.70;0.20;;;28.00;2.30;;;;;;4897205;29;20480;-71
2023/09/08 13:11:00;;;;;;;0.80;0.43;;;28.00;1.00;;;;;;4897556;29;20467;-71
2023/09/08 13:13:29;;;;;;;0.70;0.20;;;28.00;1.00;;;;;;4896800;29;20456;-72
2023/09/08 13:15:57;;;;;;;0.70;0.10;;;28.00;2.30;;;;;;4896585;29;20556;-72
2023/09/08 13:18:26;;;;;;;0.70;0.20;;;28.10;1.00;;;;;;4896748;29;20456;-72
2023/09/08 13:20:54;;;;;;;0.70;0.20;;;28.20;1.00;;;;;;4896666;29;20542;-72
2023/09/08 13:23:22;;;;;;;0.70;0.20;;;;;;;;;;4896720;29;20456;-72
2023/09/08 13:25:50;;;;;;;1.00;0.80;;;28.20;1.00;;;;;;4896261;29;20498;-71
2023/09/08 13:28:18;;;;;;;0.70;0.40;;;28.20;1.00;;;;;;4896764;29;20541;-71
2023/09/08 13:30:46;;;;;;;0.70;0.20;;;28.30;1.00;;;;;;4896130;29;20478;-72
2023/09/08 13:33:14;;;;;;;0.70;0.10;;;28.40;1.00;;;;;;4896126;29;20479;-71
2023/09/08 13:35:43;;;;;;;0.70;0.10;;;28.40;1.00;;;;;;4895651;29;20555;-71
2023/09/08 13:38:11;;;;;;;0.70;0.20;;;;;;;;;;4896927;29;20462;-71
2023/09/08 13:40:39;;;;;;;0.70;0.20;;;28.40;1.00;;;;;;4895878;29;20579;-72
2023/09/08 13:43:12;;;;;;;0.70;0.20;;;;;;;;;;4896290;29;20464;-72
2023/09/08 13:45:43;;;;;;;0.70;0.10;;;28.40;1.00;;;;;;4895557;29;20603;-72
2023/09/08 13:48:12;;;;;;;0.70;0.10;;;28.50;1.00;;;;;;4895857;29;20454;-72
2023/09/08 13:50:43;;;;;;;0.70;0.20;;;;;;;;;;4894838;29;20464;-72
2023/09/08 13:53:12;;;;;;;0.70;0.20;;;28.40;1.00;;;;;;4895350;29;20444;-72
2023/09/08 13:55:42;;;;;;;0.70;0.20;;;;;;;;;;4894661;29;20877;-72
2023/09/08 13:58:12;;;;;;;0.80;0.73;;;28.40;1.00;;;;;;4895943;29;20809;-74
2023/09/08 14:00:41;;;;;;;0.70;0.20;;;;;;;;;;4896000;29;21106;-75
2023/09/08 14:03:13;;;;;;;1.10;0.50;;;;;;;;;;4896385;29;20873;-74
2023/09/08 14:05:49;;;;;;;0.70;0.13;;;28.70;1.00;;;;;;4895481;29;20508;-72
2023/09/08 14:08:21;;;;;;;0.70;0.17;;;28.70;1.00;;;;;;4896102;29;21170;-71
2023/09/08 14:10:56;;;;;;;0.70;0.13;;;28.70;1.00;;;;;;4895860;29;20484;-72
2023/09/08 14:13:26;;;;;;;0.70;0.20;;;28.60;1.00;;;;;;4896170;29;20448;-73
2023/09/08 14:15:55;;;;;;;0.70;0.20;;;28.60;1.00;;;;;;4896107;29;20463;-73
2023/09/08 14:18:23;;;;;;;0.70;0.20;;;28.70;1.00;;;;;;4896032;29;20882;-72
2023/09/08 14:20:52;;;;;;;1.30;0.77;;;28.60;1.00;;;;;;4895913;29;21041;-73
2023/09/08 14:23:20;;;;;;;0.80;0.40;;;28.70;1.00;;;;;;4897299;29;20457;-72
2023/09/08 14:25:47;;;;;;;0.70;0.10;;;28.80;1.00;;;;;;4888720;29;20536;-72
2023/09/08 14:28:15;;;;;;;0.70;0.20;;;28.90;1.00;;;;;;4896589;29;20971;-73
2023/09/08 14:30:44;;;;;;;0.70;0.30;;;28.90;1.00;;;;;;4894858;29;20474;-72
2023/09/08 14:33:12;;;;;;;0.70;0.20;;;28.90;1.00;;;;;;4896294;29;20462;-72
2023/09/08 14:35:43;;;;;;;0.70;0.10;;;29.00;1.00;;;;;;4902708;29;20468;-72
2023/09/08 14:38:16;;;;;;;1.17;1.07;;;29.00;1.00;;;;;;4895916;29;20491;-73
2023/09/08 14:40:44;;;;;;;0.70;0.10;;;29.10;1.00;;;;;;4895863;29;21091;-73
2023/09/08 14:43:12;;;;;;;0.70;0.10;;;29.20;1.00;;;;;;4895472;29;20459;-74
2023/09/08 14:45:40;;;;;;;0.70;0.10;;;29.20;1.00;;;;;;4895270;29;20453;-71
2023/09/08 14:48:08;;;;;;;0.70;0.20;;;29.30;1.00;;;;;;4894732;29;20521;-72
2023/09/08 14:50:36;;;;;;;2.20;2.10;;;29.30;1.00;;;;;;4895060;29;21059;-72
2023/09/08 14:53:06;;;;;;;0.70;0.13;;;;;;;;;;4895207;29;20499;-72
2023/09/08 14:55:36;;;;;;;0.70;0.10;;;29.40;1.00;;;;;;4894827;29;20532;-72
2023/09/08 14:58:04;;;;;;;0.70;0.17;;;29.40;1.00;;;;;;4894588;29;20489;-73
2023/09/08 15:00:32;;;;;;;1.07;0.97;;;29.40;1.00;;;;;;4894273;29;20579;-71
2023/09/08 15:03:01;;;;;;;0.70;0.13;;;29.50;1.00;;;;;;4897507;29;20449;-72
2023/09/08 15:05:29;;;;;;;14.23;2.37;;;29.40;1.00;;;;;;4898559;29;20464;-72
2023/09/08 15:07:57;;;;;;;0.70;0.10;;;29.50;1.00;;;;;;4898460;29;20982;-71
2023/09/08 15:10:25;;;;;;;0.70;0.20;;;29.50;1.00;;;;;;4898793;29;20453;-72
2023/09/08 15:12:54;;;;;;;0.70;0.10;;;29.60;1.00;;;;;;4965175;23;21011;-71
2023/09/08 15:15:24;;;;;;;0.70;0.20;;;;;;;;;;4897738;29;20488;-71
2023/09/08 15:17:52;;;;;;;0.70;0.20;;;29.80;1.00;;;;;;4890752;29;20476;-71
2023/09/08 15:20:20;;;;;;;0.70;0.10;;;30.00;1.00;;;;;;4898306;29;20456;-71
2023/09/08 15:22:49;;;;;;;0.70;0.20;;;30.00;1.00;;;;;;4897689;29;20555;-71
2023/09/08 15:25:17;;;;;;;0.70;0.20;;;30.00;1.00;;;;;;4898118;29;20660;-72
2023/09/08 15:27:45;;;;;;;0.70;0.20;;;;;;;;;;4898583;29;20441;-73
2023/09/08 15:30:15;;;;;;;0.70;0.10;;;;;;;;;;4898649;29;20499;-71
2023/09/08 15:32:45;;;;;;;0.80;0.40;;;30.10;1.00;;;;;;4897935;29;20469;-72
2023/09/08 15:35:13;;;;;;;0.70;0.20;;;30.20;1.00;;;;;;4898068;29;20474;-72
2023/09/08 15:37:40;;;;;;;0.70;0.10;;;30.30;1.00;;;;;;4897723;29;20445;-72
2023/09/08 15:40:13;;;;;;;0.70;0.20;;;30.50;1.00;;;;;;4898078;29;20963;-72
2023/09/08 15:42:43;;;;;;;0.70;0.17;;;30.60;1.00;;;;;;4897777;29;20601;-72
2023/09/08 15:45:12;;;;;;;0.70;0.20;;;30.70;1.00;;;;;;4898683;29;20889;-72
2023/09/08 15:47:41;;;;;;;0.70;0.10;;;30.60;1.00;;;;;;4897827;29;20449;-72
2023/09/08 15:50:10;;;;;;;0.70;0.20;;;30.80;1.00;;;;;;4898005;29;21007;-72
2023/09/08 15:52:38;;;;;;;0.70;0.20;;;30.90;1.00;;;;;;4897705;29;20473;-72
2023/09/08 15:55:06;;;;;;;0.70;0.20;;;31.10;1.00;;;;;;4897895;29;20536;-72
2023/09/08 15:57:34;;;;;;;0.70;0.17;;;31.10;1.00;;;;;;4898271;29;20454;-72
2023/09/08 16:00:03;;;;;;;0.70;0.20;;;31.10;1.00;;;;;;4897833;29;20467;-71
2023/09/08 16:02:31;;;;;;;0.70;0.20;;;31.10;1.00;;;;;;4897449;29;20524;-72
2023/09/08 16:05:00;;;;;;;0.70;0.10;;;31.30;1.00;;;;;;4897167;29;20483;-71
2023/09/08 16:07:28;;;;;;;0.70;0.17;;;31.40;1.00;;;;;;4897484;29;20874;-72
2023/09/08 16:09:56;;;;;;;0.70;0.20;;;31.50;1.00;;;;;;4897383;29;20527;-71
2023/09/08 16:12:24;;;;;;;0.70;0.17;;;31.50;1.00;;;;;;4897527;29;20569;-71
2023/09/08 16:14:52;;;;;;;0.70;0.20;;;31.50;1.00;;;;;;4885763;29;20878;-72
2023/09/08 16:17:19;;;;;;;0.70;0.20;;;31.50;1.00;;;;;;4895122;29;20482;-72
2023/09/08 16:19:47;;;;;;;0.93;0.60;;;31.50;1.00;;;;;;4892972;29;20492;-71
2023/09/08 16:22:17;;;;;;;0.70;0.20;;;31.50;1.00;;;;;;4893972;29;20923;-72
2023/09/08 16:24:45;;;;;;;0.70;0.20;;;31.60;1.00;;;;;;4896487;29;20855;-73
2023/09/08 16:27:12;;;;;;;0.70;0.10;;;31.70;1.00;;;;;;4896745;29;20567;-72
2023/09/08 16:29:41;;;;;;;0.70;0.10;;;31.70;1.00;;;;;;4895185;29;20463;-72
2023/09/08 16:32:11;;;;;;;0.70;0.20;;;31.70;1.00;;;;;;4894020;29;21020;-72
2023/09/08 16:34:39;;;;;;;0.70;0.10;;;31.60;1.00;;;;;;4895836;29;20882;-72
2023/09/08 16:37:07;;;;;;;0.70;0.20;;;31.50;1.00;;;;;;4892688;29;20465;-72
2023/09/08 16:39:36;;;;;;;0.70;0.10;;;31.50;1.00;;;;;;4896877;29;20536;-72
2023/09/08 16:42:04;;;;;;;0.70;0.10;;;;;;;;;;4896461;29;20497;-72
2023/09/08 16:44:32;;;;;;;0.80;0.50;;;31.40;1.00;;;;;;4895763;29;20449;-72
2023/09/08 16:47:00;;;;;;;0.70;0.10;;;31.30;1.00;;;;;;4895189;29;20445;-72
2023/09/08 16:49:28;;;;;;;0.70;0.20;;;31.30;1.00;;;;;;4896203;29;20465;-72
2023/09/08 16:51:57;;;;;;;0.70;0.20;;;31.30;1.00;;;;;;4896665;29;20465;-70
2023/09/08 16:54:24;;;;;;;0.70;0.10;;;31.30;1.00;;;;;;4896173;29;20826;-71
2023/09/08 16:56:54;;;;;;;0.70;0.10;;;31.10;1.00;;;;;;4895687;29;21021;-70
2023/09/08 16:59:22;;;;;;;0.70;0.20;;;30.90;1.00;;;;;;4895712;29;20867;-71
2023/09/08 17:01:50;;;;;;;0.70;0.20;;;30.70;1.00;;;;;;4895796;29;20548;-72
2023/09/08 17:04:18;;;;;;;0.70;0.10;;;30.50;1.00;;;;;;4896123;29;20520;-70
2023/09/08 17:06:46;;;;;;;0.70;0.17;;;30.40;1.00;;;;;;4891456;29;20462;-73
2023/09/08 17:09:15;;;;;;;0.70;0.20;;;30.20;1.00;;;;;;4890767;29;20473;-70